Latest Weather Observations for Tennant Creek

IDD60801

Issued at 11:31 am CST Sunday 2 August 2015 (issued every 30 minutes, with the page automatically refreshed every 10 minutes)

About weather observations | Map of weather stations | Latest weather observations for NT | Other Formats
Station Details ID: 015135 Name: TENNANT CREEK AIRPORT Lat: -19.64 Lon: 134.18 Height: 375.7 m
Data from the previous 72 hours. | See also: Recent months at Tennant Creek
Date/Time
CST
Temp
°C
App
Temp
°C
Dew
Point
Rel
Hum
%
Delta-T
°C
Wind Press
QNH
hPa
Press
MSL
hPa
Rain
since 9 am
mm
Dir
 
Spd
km/h
Gust
km/h
Spd
kts
Gust
kts
02/11:30am 28.1 23.7 0.2 16 13.4 NNE 13 20 7 11 1020.0 - 0.0
02/11:00am 27.6 23.2 0.6 17 13.0 NNE 13 22 7 12 1020.4 - 0.0
02/10:30am 27.1 22.2 -0.5 16 13.0 NNE 15 20 8 11 1020.5 - 0.0
02/10:00am 25.8 21.1 0.6 19 12.0 NNE 15 20 8 11 1020.4 - 0.0
02/09:30am 25.6 20.1 0.5 19 11.9 NNE 19 24 10 13 1020.4 - 0.0
02/08:30am 22.0 19.6 2.3 27 9.4 ENE 4 7 2 4 1019.9 - 0.0
02/08:00am 19.3 16.4 2.5 32 7.9 E 7 9 4 5 1019.5 - 0.0
02/07:30am 16.3 13.5 2.9 40 6.2 E 7 9 4 5 1018.9 - 0.0
02/07:00am 15.7 12.8 2.6 41 6.0 E 7 9 4 5 1018.7 - 0.0
02/06:30am 13.0 10.3 3.9 54 4.2 E 7 7 4 4 1018.5 - 0.0
02/06:00am 13.2 11.4 3.3 51 4.5 SSE 2 7 1 4 1018.3 1016.8 0.0
02/05:30am 13.6 12.2 3.3 49 4.7 CALM 0 0 0 0 1018.1 - 0.0
02/05:00am 14.8 12.2 3.3 46 5.3 S 6 7 3 4 1017.9 - 0.0
02/04:30am 16.0 13.1 1.5 37 6.5 SSE 6 7 3 4 1017.9 - 0.0
02/04:00am 14.6 12.0 3.3 46 5.2 ESE 6 6 3 3 1017.9 - 0.0
02/03:30am 14.6 12.6 4.4 50 4.8 E 4 6 2 3 1017.9 - 0.0
02/03:00am 15.1 13.9 4.8 50 4.9 CALM 0 0 0 0 1017.9 1016.4 0.0
02/02:30am 15.1 13.7 3.8 46 5.3 CALM 0 0 0 0 1018.0 - 0.0
02/02:00am 14.8 13.5 4.2 49 5.0 CALM 0 0 0 0 1018.2 - 0.0
02/01:30am 15.0 13.7 3.9 47 5.2 CALM 0 0 0 0 1018.3 - 0.0
02/01:00am 15.0 13.6 3.6 46 5.3 CALM 0 0 0 0 1018.5 - 0.0
02/12:30am 15.0 12.9 3.9 47 5.2 W 4 6 2 3 1018.5 - 0.0
02/12:00am 16.1 13.4 2.6 40 6.2 W 6 7 3 4 1018.6 1017.1 0.0
 
Date/Time
CST
Temp
°C
App
Temp
°C
Dew
Point
Rel
Hum
%
Delta-T
°C
Wind Press
QNH
hPa
Press
MSL
hPa
Rain
since 9 am
mm
Dir
 
Spd
km/h
Gust
km/h
Spd
kts
Gust
kts
01/11:30pm 16.1 11.9 1.7 38 6.5 WSW 13 15 7 8 1018.5 - 0.0
01/11:00pm 19.3 16.8 4.6 38 7.2 E 7 9 4 5 1018.4 - 0.0
01/10:30pm 19.7 16.5 2.9 33 8.0 E 9 9 5 5 1018.3 - 0.0
01/10:00pm 19.4 17.0 5.3 39 7.0 ENE 7 9 4 5 1018.3 - 0.0
01/09:30pm 20.5 17.6 4.8 35 7.8 E 9 9 5 5 1018.1 - 0.0
01/09:00pm 19.4 16.5 2.7 33 7.9 ENE 7 11 4 6 1017.9 1016.4 0.0
01/08:30pm 19.3 16.8 3.7 35 7.5 NE 6 7 3 4 1017.8 - 0.0
01/08:00pm 20.4 18.4 4.6 35 7.8 NE 4 6 2 3 1017.4 - 0.0
01/07:30pm 21.4 19.5 4.8 33 8.3 NE 4 6 2 3 1016.9 - 0.0
01/07:00pm 22.5 20.3 3.6 29 9.3 NE 4 6 2 3 1016.6 - 0.0
01/06:30pm 24.5 22.0 3.7 26 10.4 NW 6 7 3 4 1016.4 - 0.0
01/06:00pm 28.0 25.6 2.4 19 12.8 NNW 4 6 2 3 1016.1 1014.6 0.0
01/05:30pm 28.6 25.3 -1.0 14 14.0 N 6 9 3 5 1016.0 - 0.0
01/05:00pm 29.0 25.6 -0.9 14 14.2 N 7 15 4 8 1016.2 - 0.0
01/04:30pm 29.2 26.7 1.6 17 13.7 N 4 7 2 4 1016.2 - 0.0
01/04:00pm 29.3 25.2 -0.1 15 14.2 NW 11 22 6 12 1016.1 - 0.0
01/03:30pm 29.0 24.2 -2.3 13 14.5 NNW 13 24 7 13 1016.3 - 0.0
01/03:00pm 28.7 25.1 0.9 16 13.6 NNW 9 13 5 7 1016.5 1015.1 0.0
01/02:30pm 28.7 25.9 2.0 18 13.3 ESE 6 13 3 7 1017.2 - 0.0
01/02:00pm 28.8 24.8 0.3 16 13.8 NNW 11 17 6 9 1017.6 - 0.0
01/01:30pm 28.5 24.0 -0.5 15 13.8 N 13 24 7 13 1018.1 - 0.0
01/01:00pm 27.9 23.6 1.0 17 13.1 N 13 24 7 13 1018.6 - 0.0
01/12:30pm 27.7 22.7 1.3 18 12.9 N 17 26 9 14 1019.2 - 0.0
01/12:00pm 26.9 21.9 1.4 19 12.4 N 17 28 9 15 1019.7 1018.3 0.0
01/11:30am 26.2 21.4 2.5 21 11.7 N 17 24 9 13 1020.1 - 0.0
01/11:00am 25.3 21.2 2.5 22 11.2 N 13 20 7 11 1020.4 - 0.0
01/10:30am 23.4 18.6 2.6 25 10.1 N 17 22 9 12 1020.8 - 0.0
01/10:00am 21.9 17.7 1.5 26 9.6 NNE 13 20 7 11 1020.9 - 0.0
01/09:30am 20.7 15.1 -3.0 20 10.1 NE 17 24 9 13 1020.5 - 0.0
01/09:00am 19.2 12.9 -4.2 20 9.6 ENE 20 28 11 15 1020.3 1018.9 0.0
01/08:30am 18.1 11.9 -4.4 21 9.1 ENE 19 24 10 13 1020.0 - 0.0
01/08:00am 16.1 10.7 -4.3 24 8.1 E 15 20 8 11 1019.5 - 0.0
01/07:30am 15.8 10.4 -4.5 24 8.0 E 15 20 8 11 1018.9 - 0.0
01/07:00am 15.1 9.7 -4.2 26 7.6 E 15 22 8 12 1018.6 - 0.0
01/06:30am 15.9 10.1 -4.7 24 8.1 E 17 24 9 13 1018.4 - 0.0
01/06:00am 16.3 10.5 -4.8 23 8.3 E 17 24 9 13 1018.0 1016.5 0.0
01/05:30am 16.5 10.7 -4.8 23 8.4 E 17 20 9 11 1017.9 - 0.0
01/05:00am 16.2 10.5 -4.1 24 8.1 E 17 22 9 12 1017.9 - 0.0
01/04:30am 16.6 11.2 -4.1 24 8.3 E 15 22 8 12 1017.8 - 0.0
01/04:00am 17.2 11.5 -4.1 23 8.6 E 17 24 9 13 1017.8 - 0.0
01/03:30am 17.3 12.4 -3.5 24 8.5 ESE 13 20 7 11 1017.6 - 0.0
01/03:00am 17.8 12.9 -3.3 23 8.7 ESE 13 22 7 12 1017.6 1016.2 0.0
01/02:30am 18.0 13.2 -2.4 25 8.6 E 13 20 7 11 1017.6 - 0.0
01/02:00am 17.8 13.1 -1.6 26 8.3 ESE 13 15 7 8 1017.9 - 0.0
01/01:30am 17.8 13.6 -1.2 27 8.2 E 11 15 6 8 1018.1 - 0.0
01/01:00am 17.9 14.1 -0.7 28 8.1 E 9 13 5 7 1018.3 - 0.0
01/12:30am 18.0 14.3 -0.1 29 8.0 E 9 13 5 7 1018.4 - 0.0
01/12:00am 18.0 14.0 0.2 30 7.9 E 11 13 6 7 1018.5 1017.5 0.0
 
Date/Time
CST
Temp
°C
App
Temp
°C
Dew
Point
Rel
Hum
%
Delta-T
°C
Wind Press
QNH
hPa
Press
MSL
hPa
Rain
since 9 am
mm
Dir
 
Spd
km/h
Gust
km/h
Spd
kts
Gust
kts
31/11:30pm 18.1 14.2 1.1 32 7.7 E 11 13 6 7 1018.8 - 0.0
31/11:00pm 18.0 14.2 1.6 33 7.5 E 11 13 6 7 1018.8 - 0.0
31/10:30pm 18.4 14.6 1.9 33 7.6 E 11 13 6 7 1018.7 - 0.0
31/10:00pm 19.0 15.6 2.0 32 7.9 E 9 11 5 6 1018.6 - 0.0
31/09:30pm 19.1 15.4 2.2 32 7.9 E 11 13 6 7 1018.5 - 0.0
31/09:00pm 19.9 16.5 1.9 30 8.4 E 9 11 5 6 1018.4 1017.4 0.0
31/08:30pm 21.3 17.8 1.4 26 9.3 E 9 13 5 7 1018.1 - 0.0
31/08:00pm 21.9 18.4 1.2 25 9.7 ESE 9 13 5 7 1017.5 - 0.0
31/07:30pm 22.4 18.9 1.1 24 10.0 ESE 9 13 5 7 1017.2 - 0.0
31/07:00pm 23.5 19.9 0.7 22 10.7 ESE 9 11 5 6 1017.0 - 0.0
31/06:30pm 25.0 21.3 0.1 19 11.7 ESE 9 13 5 7 1016.7 - 0.0
31/06:00pm 26.6 22.8 -0.8 16 12.8 ESE 9 13 5 7 1016.6 1015.6 0.0
31/05:30pm 27.3 22.7 -1.2 15 13.3 ESE 13 20 7 11 1016.6 - 0.0
31/05:00pm 27.6 23.5 -0.1 16 13.2 ENE 11 20 6 11 1016.6 - 0.0
31/04:30pm 27.9 23.6 -1.5 14 13.7 ENE 11 20 6 11 1016.6 - 0.0
31/04:00pm 28.5 24.1 -2.2 13 14.2 ENE 11 24 6 13 1016.7 - 0.0
31/03:30pm 27.8 22.9 -3.2 13 14.0 ESE 13 22 7 12 1016.9 - 0.0
31/03:00pm 27.5 22.6 -3.0 13 13.8 ENE 13 24 7 13 1017.4 1016.5 0.0
31/02:30pm 28.5 23.9 -3.7 12 14.5 E 11 20 6 11 1017.8 - 0.0
31/02:00pm 27.6 23.2 -2.3 14 13.7 NNE 11 24 6 13 1018.4 - 0.0
31/01:30pm 27.2 22.9 -1.5 15 13.3 ENE 11 22 6 12 1018.8 - 0.0
31/01:00pm 26.4 21.6 -2.2 15 13.0 ENE 13 20 7 11 1019.4 - 0.0
31/12:30pm 26.5 20.5 -2.9 14 13.2 E 19 28 10 15 1020.0 - 0.0
31/12:00pm 25.4 19.4 -3.0 15 12.6 E 19 26 10 14 1020.4 1019.5 0.0
31/11:30am 25.2 18.6 -3.0 15 12.5 ENE 22 30 12 16 1020.8 - 0.0
31/11:00am 24.1 18.0 -4.0 15 12.1 E 19 26 10 14 1021.0 - 0.0
31/10:30am 22.9 15.7 -5.2 15 11.7 E 24 32 13 17 1021.2 - 0.0
31/10:00am 21.7 14.4 -5.9 15 11.2 E 24 32 13 17 1021.3 - 0.0
31/09:30am 20.1 12.5 -5.9 17 10.4 E 26 33 14 18 1021.2 - 0.0
31/09:00am 19.0 12.4 -6.7 17 10.0 E 20 30 11 16 1021.0 1020.0 0.0
31/08:30am 17.0 9.6 -7.7 18 9.2 E 24 33 13 18 1020.8 - 0.0
31/08:00am 15.0 8.3 -7.9 20 8.3 E 20 26 11 14 1020.4 - 0.0
31/07:30am 14.1 7.9 -8.5 20 8.0 E 17 24 9 13 1020.3 - 0.0
31/07:00am 13.9 7.4 -8.4 20 7.9 E 19 26 10 14 1020.1 - 0.0
31/06:30am 13.6 7.4 -8.6 20 7.8 E 17 24 9 13 1019.9 - 0.0
31/06:00am 13.9 7.6 -9.6 18 8.1 ESE 17 22 9 12 1019.7 1018.8 0.0
31/05:30am 14.2 8.0 -9.4 18 8.2 ESE 17 24 9 13 1019.7 - 0.0
31/05:00am 14.2 8.4 -8.8 19 8.1 E 15 20 8 11 1019.6 - 0.0
31/04:30am 14.3 9.2 -9.1 19 8.2 E 11 15 6 8 1019.6 - 0.0
31/04:00am 15.2 9.7 -9.7 17 8.7 E 13 17 7 9 1019.7 - 0.0
31/03:30am 15.4 9.1 -10.3 16 8.9 ESE 17 22 9 12 1019.9 - 0.0
31/03:00am 15.2 9.7 -9.1 18 8.6 ESE 13 20 7 11 1020.0 1019.1 0.0
31/02:30am 14.6 9.3 -7.8 20 8.1 E 13 15 7 8 1020.3 - 0.0
31/02:00am 14.5 9.3 -6.5 23 7.8 E 13 15 7 8 1020.7 - 0.0
31/01:30am 15.1 9.9 -6.6 22 8.1 E 13 17 7 9 1020.8 - 0.0
31/01:00am 14.6 9.8 -5.8 24 7.7 E 11 15 6 8 1021.2 - 0.0
31/12:30am 14.5 10.2 -5.1 25 7.5 E 9 11 5 6 1021.2 - 0.0
31/12:00am 15.0 10.7 -4.9 25 7.7 E 9 13 5 7 1021.3 1020.3 0.0
 
Date/Time
CST
Temp
°C
App
Temp
°C
Dew
Point
Rel
Hum
%
Delta-T
°C
Wind Press
QNH
hPa
Press
MSL
hPa
Rain
since 9 am
mm
Dir
 
Spd
km/h
Gust
km/h
Spd
kts
Gust
kts
30/11:30pm 15.5 11.3 -4.3 25 7.8 E 9 11 5 6 1021.6 - 0.0
30/11:00pm 16.1 12.0 -3.1 26 7.8 E 9 13 5 7 1021.6 - 0.0
30/10:30pm 17.0 12.8 -4.2 23 8.5 E 9 13 5 7 1021.7 - 0.0
30/10:00pm 16.8 12.7 -3.3 25 8.2 E 9 11 5 6 1021.7 - 0.0
30/09:30pm 17.5 13.3 -3.6 23 8.6 E 9 11 5 6 1021.7 - 0.0
30/09:00pm 18.3 14.1 -4.0 21 9.1 ESE 9 11 5 6 1021.7 1020.8 0.0
30/08:30pm 20.3 15.4 -7.0 15 10.7 SE 11 13 6 7 1021.5 - 0.0
30/08:00pm 18.7 14.9 -3.6 22 9.2 E 7 9 4 5 1021.1 - 0.0
30/07:30pm 20.9 16.5 -5.9 16 10.8 ESE 9 11 5 6 1020.7 - 0.0
30/07:00pm 22.6 17.6 -7.7 12 12.0 SE 11 13 6 7 1020.4 - 0.0
30/06:30pm 23.1 19.1 -5.7 14 11.9 ESE 7 11 4 6 1020.3 - 0.0
30/06:00pm 24.9 20.4 -6.5 12 13.0 ESE 9 13 5 7 1020.0 1019.1 0.0
30/05:30pm 26.0 21.4 -8.4 10 13.9 SSE 9 17 5 9 1020.0 - 0.0
30/05:00pm 26.4 22.5 -4.7 12 13.5 SE 7 13 4 7 1019.8 - 0.0
30/04:30pm 26.4 22.2 -7.6 10 14.0 E 7 15 4 8 1019.7 - 0.0
30/04:00pm 26.8 22.7 -6.9 10 14.1 E 7 11 4 6 1019.7 - 0.0
30/03:30pm 26.8 22.9 -5.1 12 13.8 SSW 7 13 4 7 1019.8 - 0.0
30/03:00pm 26.6 23.0 -3.6 13 13.4 S 6 13 3 7 1020.1 1019.2 0.0
30/02:30pm 27.1 22.8 -4.8 12 13.9 SSW 9 15 5 8 1020.7 - 0.0
30/02:00pm 26.3 22.1 -4.0 13 13.3 S 9 17 5 9 1021.1 - 0.0
30/01:30pm 26.3 22.6 -3.0 14 13.1 E 7 13 4 7 1021.6 - 0.0
30/01:00pm 24.9 20.6 -4.9 13 12.7 ENE 9 17 5 9 1022.1 - 0.0
30/12:30pm 24.4 19.3 -5.3 13 12.6 E 13 24 7 13 1022.6 - 0.0
30/12:00pm 24.3 18.4 -5.6 13 12.5 E 17 24 9 13 1023.1 1022.2 0.0

Other Formats:

Comma delimited format used in spreadsheet applications
http://www.bom.gov.au/fwo/IDD60801/IDD60801.94238.axf

JavaScript Object Notation format (JSON) in row-major order
http://www.bom.gov.au/fwo/IDD60801/IDD60801.94238.json